sensor_id;sensor_type;location;lat;lon;timestamp;P1;durP1;ratioP1;P2;durP2;ratioP2
11034;SDS011;5571;48.110;-1.706;2023-02-13T00:00:04;14.07;;;10.90;;
11034;SDS011;5571;48.110;-1.706;2023-02-13T00:02:36;14.40;;;10.53;;
11034;SDS011;5571;48.110;-1.706;2023-02-13T00:05:05;15.17;;;10.77;;
11034;SDS011;5571;48.110;-1.706;2023-02-13T00:07:31;14.70;;;11.23;;
11034;SDS011;5571;48.110;-1.706;2023-02-13T00:09:57;16.17;;;11.30;;
11034;SDS011;5571;48.110;-1.706;2023-02-13T00:12:22;14.63;;;10.57;;
11034;SDS011;5571;48.110;-1.706;2023-02-13T00:14:48;13.03;;;11.10;;
11034;SDS011;5571;48.110;-1.706;2023-02-13T00:17:13;12.87;;;10.67;;
11034;SDS011;5571;48.110;-1.706;2023-02-13T00:19:39;15.80;;;12.03;;
11034;SDS011;5571;48.110;-1.706;2023-02-13T00:22:05;14.97;;;11.37;;
11034;SDS011;5571;48.110;-1.706;2023-02-13T00:24:31;17.60;;;11.87;;
11034;SDS011;5571;48.110;-1.706;2023-02-13T00:26:56;15.07;;;11.80;;
11034;SDS011;5571;48.110;-1.706;2023-02-13T00:29:22;14.73;;;11.57;;
11034;SDS011;5571;48.110;-1.706;2023-02-13T00:31:47;14.23;;;11.27;;
11034;SDS011;5571;48.110;-1.706;2023-02-13T00:34:13;16.30;;;12.07;;
11034;SDS011;5571;48.110;-1.706;2023-02-13T00:36:39;18.50;;;13.33;;
11034;SDS011;5571;48.110;-1.706;2023-02-13T00:39:04;14.87;;;12.37;;
11034;SDS011;5571;48.110;-1.706;2023-02-13T00:41:30;15.70;;;11.73;;
11034;SDS011;5571;48.110;-1.706;2023-02-13T00:43:55;13.70;;;11.50;;
11034;SDS011;5571;48.110;-1.706;2023-02-13T00:46:21;15.90;;;11.77;;
11034;SDS011;5571;48.110;-1.706;2023-02-13T00:48:47;15.20;;;12.03;;
11034;SDS011;5571;48.110;-1.706;2023-02-13T00:51:13;14.63;;;11.47;;
11034;SDS011;5571;48.110;-1.706;2023-02-13T00:53:39;13.97;;;11.23;;
11034;SDS011;5571;48.110;-1.706;2023-02-13T00:56:05;13.50;;;11.27;;
11034;SDS011;5571;48.110;-1.706;2023-02-13T00:58:31;14.93;;;11.23;;
11034;SDS011;5571;48.110;-1.706;2023-02-13T01:00:57;14.27;;;10.77;;
11034;SDS011;5571;48.110;-1.706;2023-02-13T01:03:23;17.57;;;13.07;;
11034;SDS011;5571;48.110;-1.706;2023-02-13T01:05:49;15.47;;;12.00;;
11034;SDS011;5571;48.110;-1.706;2023-02-13T01:08:16;13.27;;;11.33;;
11034;SDS011;5571;48.110;-1.706;2023-02-13T01:10:44;14.47;;;11.40;;
11034;SDS011;5571;48.110;-1.706;2023-02-13T01:13:11;13.30;;;10.87;;
11034;SDS011;5571;48.110;-1.706;2023-02-13T01:15:38;15.87;;;11.90;;
11034;SDS011;5571;48.110;-1.706;2023-02-13T01:18:04;13.53;;;11.03;;
11034;SDS011;5571;48.110;-1.706;2023-02-13T01:20:31;15.83;;;11.57;;
11034;SDS011;5571;48.110;-1.706;2023-02-13T01:22:56;15.40;;;11.43;;
11034;SDS011;5571;48.110;-1.706;2023-02-13T01:25:22;14.17;;;11.13;;
11034;SDS011;5571;48.110;-1.706;2023-02-13T01:27:48;14.00;;;11.17;;
11034;SDS011;5571;48.110;-1.706;2023-02-13T01:30:15;15.20;;;11.40;;
11034;SDS011;5571;48.110;-1.706;2023-02-13T01:32:42;17.10;;;12.23;;
11034;SDS011;5571;48.110;-1.706;2023-02-13T01:35:09;15.10;;;11.93;;
11034;SDS011;5571;48.110;-1.706;2023-02-13T01:37:35;14.97;;;11.53;;
11034;SDS011;5571;48.110;-1.706;2023-02-13T01:40:03;13.87;;;11.03;;
11034;SDS011;5571;48.110;-1.706;2023-02-13T01:42:30;14.20;;;11.50;;
11034;SDS011;5571;48.110;-1.706;2023-02-13T01:44:59;14.20;;;12.33;;
11034;SDS011;5571;48.110;-1.706;2023-02-13T01:47:35;15.87;;;11.17;;
11034;SDS011;5571;48.110;-1.706;2023-02-13T01:52:45;14.43;;;11.23;;
11034;SDS011;5571;48.110;-1.706;2023-02-13T01:55:28;15.47;;;11.73;;
11034;SDS011;5571;48.110;-1.706;2023-02-13T01:57:57;15.57;;;11.20;;
11034;SDS011;5571;48.110;-1.706;2023-02-13T02:00:28;14.27;;;11.10;;
11034;SDS011;5571;48.110;-1.706;2023-02-13T02:02:57;15.83;;;11.20;;
11034;SDS011;5571;48.110;-1.706;2023-02-13T02:05:28;15.60;;;11.10;;
11034;SDS011;5571;48.110;-1.706;2023-02-13T02:07:56;16.60;;;11.37;;
11034;SDS011;5571;48.110;-1.706;2023-02-13T02:10:24;14.63;;;11.30;;
11034;SDS011;5571;48.110;-1.706;2023-02-13T02:15:32;13.00;;;10.57;;
11034;SDS011;5571;48.110;-1.706;2023-02-13T02:17:58;14.20;;;11.83;;
11034;SDS011;5571;48.110;-1.706;2023-02-13T02:31:36;16.57;;;11.90;;
11034;SDS011;5571;48.110;-1.706;2023-02-13T02:50:53;14.57;;;11.37;;
11034;SDS011;5571;48.110;-1.706;2023-02-13T02:53:32;16.07;;;11.87;;
11034;SDS011;5571;48.110;-1.706;2023-02-13T02:56:13;13.53;;;11.03;;
11034;SDS011;5571;48.110;-1.706;2023-02-13T02:58:47;16.93;;;11.97;;
11034;SDS011;5571;48.110;-1.706;2023-02-13T03:01:37;14.63;;;11.03;;
11034;SDS011;5571;48.110;-1.706;2023-02-13T03:04:24;13.73;;;11.30;;
11034;SDS011;5571;48.110;-1.706;2023-02-13T03:07:45;17.47;;;12.00;;
11034;SDS011;5571;48.110;-1.706;2023-02-13T03:10:12;16.13;;;12.13;;
11034;SDS011;5571;48.110;-1.706;2023-02-13T03:13:02;13.93;;;11.10;;
11034;SDS011;5571;48.110;-1.706;2023-02-13T03:15:51;16.63;;;11.63;;
11034;SDS011;5571;48.110;-1.706;2023-02-13T03:18:43;14.07;;;11.20;;
11034;SDS011;5571;48.110;-1.706;2023-02-13T03:24:56;13.97;;;10.80;;
11034;SDS011;5571;48.110;-1.706;2023-02-13T03:31:05;13.87;;;11.27;;
11034;SDS011;5571;48.110;-1.706;2023-02-13T03:34:24;14.97;;;11.47;;
11034;SDS011;5571;48.110;-1.706;2023-02-13T03:42:08;18.87;;;11.73;;
11034;SDS011;5571;48.110;-1.706;2023-02-13T03:44:53;13.17;;;10.97;;
11034;SDS011;5571;48.110;-1.706;2023-02-13T03:47:59;13.17;;;11.43;;
11034;SDS011;5571;48.110;-1.706;2023-02-13T03:50:33;14.20;;;10.80;;
11034;SDS011;5571;48.110;-1.706;2023-02-13T03:53:05;15.13;;;11.20;;
11034;SDS011;5571;48.110;-1.706;2023-02-13T03:55:34;14.57;;;11.20;;
11034;SDS011;5571;48.110;-1.706;2023-02-13T03:58:24;18.03;;;11.53;;
11034;SDS011;5571;48.110;-1.706;2023-02-13T04:01:18;14.77;;;11.03;;
11034;SDS011;5571;48.110;-1.706;2023-02-13T04:06:20;15.57;;;11.47;;
11034;SDS011;5571;48.110;-1.706;2023-02-13T04:08:54;15.10;;;11.77;;
11034;SDS011;5571;48.110;-1.706;2023-02-13T04:19:08;14.77;;;11.70;;
11034;SDS011;5571;48.110;-1.706;2023-02-13T04:21:36;14.50;;;11.00;;
11034;SDS011;5571;48.110;-1.706;2023-02-13T04:24:04;14.37;;;11.87;;
11034;SDS011;5571;48.110;-1.706;2023-02-13T04:26:37;18.47;;;11.57;;
11034;SDS011;5571;48.110;-1.706;2023-02-13T04:29:05;16.23;;;11.93;;
11034;SDS011;5571;48.110;-1.706;2023-02-13T04:31:30;13.93;;;11.13;;
11034;SDS011;5571;48.110;-1.706;2023-02-13T04:33:56;13.93;;;10.83;;
11034;SDS011;5571;48.110;-1.706;2023-02-13T04:36:22;15.33;;;11.97;;
11034;SDS011;5571;48.110;-1.706;2023-02-13T04:38:47;14.20;;;11.03;;
11034;SDS011;5571;48.110;-1.706;2023-02-13T04:41:13;16.83;;;11.50;;
11034;SDS011;5571;48.110;-1.706;2023-02-13T04:43:39;17.37;;;11.90;;
11034;SDS011;5571;48.110;-1.706;2023-02-13T04:46:05;15.83;;;11.73;;
11034;SDS011;5571;48.110;-1.706;2023-02-13T04:48:30;14.40;;;11.33;;
11034;SDS011;5571;48.110;-1.706;2023-02-13T04:50:56;16.43;;;11.23;;
11034;SDS011;5571;48.110;-1.706;2023-02-13T04:53:22;15.00;;;11.80;;
11034;SDS011;5571;48.110;-1.706;2023-02-13T04:55:47;16.13;;;12.00;;
11034;SDS011;5571;48.110;-1.706;2023-02-13T04:58:13;15.00;;;12.33;;
11034;SDS011;5571;48.110;-1.706;2023-02-13T05:00:39;15.57;;;11.13;;
11034;SDS011;5571;48.110;-1.706;2023-02-13T05:03:08;15.67;;;11.80;;
11034;SDS011;5571;48.110;-1.706;2023-02-13T05:05:36;15.83;;;11.73;;
11034;SDS011;5571;48.110;-1.706;2023-02-13T05:08:02;16.23;;;11.97;;
11034;SDS011;5571;48.110;-1.706;2023-02-13T05:10:28;16.07;;;12.27;;
11034;SDS011;5571;48.110;-1.706;2023-02-13T05:12:54;16.93;;;12.50;;
11034;SDS011;5571;48.110;-1.706;2023-02-13T05:15:20;17.23;;;11.83;;
11034;SDS011;5571;48.110;-1.706;2023-02-13T05:17:47;14.77;;;11.80;;
11034;SDS011;5571;48.110;-1.706;2023-02-13T05:20:14;15.30;;;12.10;;
11034;SDS011;5571;48.110;-1.706;2023-02-13T05:22:45;15.40;;;11.63;;
11034;SDS011;5571;48.110;-1.706;2023-02-13T05:25:31;15.50;;;12.17;;
11034;SDS011;5571;48.110;-1.706;2023-02-13T05:27:58;14.67;;;11.77;;
11034;SDS011;5571;48.110;-1.706;2023-02-13T05:30:24;15.33;;;11.57;;
11034;SDS011;5571;48.110;-1.706;2023-02-13T05:32:50;16.53;;;11.97;;
11034;SDS011;5571;48.110;-1.706;2023-02-13T05:35:17;16.23;;;11.93;;
11034;SDS011;5571;48.110;-1.706;2023-02-13T05:37:43;16.67;;;12.70;;
11034;SDS011;5571;48.110;-1.706;2023-02-13T05:40:09;16.80;;;12.67;;
11034;SDS011;5571;48.110;-1.706;2023-02-13T05:42:37;18.77;;;13.50;;
11034;SDS011;5571;48.110;-1.706;2023-02-13T05:45:03;18.20;;;13.67;;
11034;SDS011;5571;48.110;-1.706;2023-02-13T05:47:29;16.00;;;12.47;;
11034;SDS011;5571;48.110;-1.706;2023-02-13T05:49:55;18.17;;;12.63;;
11034;SDS011;5571;48.110;-1.706;2023-02-13T05:52:20;17.70;;;14.03;;
11034;SDS011;5571;48.110;-1.706;2023-02-13T05:54:46;17.63;;;13.20;;
11034;SDS011;5571;48.110;-1.706;2023-02-13T05:57:11;16.17;;;13.07;;
11034;SDS011;5571;48.110;-1.706;2023-02-13T05:59:37;16.57;;;12.57;;
11034;SDS011;5571;48.110;-1.706;2023-02-13T06:02:03;15.57;;;12.17;;
11034;SDS011;5571;48.110;-1.706;2023-02-13T06:04:28;18.10;;;12.73;;
11034;SDS011;5571;48.110;-1.706;2023-02-13T06:06:54;16.93;;;12.30;;
11034;SDS011;5571;48.110;-1.706;2023-02-13T06:09:20;16.83;;;13.00;;
11034;SDS011;5571;48.110;-1.706;2023-02-13T06:11:46;16.77;;;13.03;;
11034;SDS011;5571;48.110;-1.706;2023-02-13T06:14:11;16.87;;;12.80;;
11034;SDS011;5571;48.110;-1.706;2023-02-13T06:16:38;20.10;;;13.77;;
11034;SDS011;5571;48.110;-1.706;2023-02-13T06:19:04;18.17;;;13.23;;
11034;SDS011;5571;48.110;-1.706;2023-02-13T06:21:30;16.03;;;13.33;;
11034;SDS011;5571;48.110;-1.706;2023-02-13T06:23:57;21.17;;;13.90;;
11034;SDS011;5571;48.110;-1.706;2023-02-13T06:26:23;17.73;;;12.87;;
11034;SDS011;5571;48.110;-1.706;2023-02-13T06:28:49;15.93;;;12.83;;
11034;SDS011;5571;48.110;-1.706;2023-02-13T06:31:14;18.00;;;13.50;;
11034;SDS011;5571;48.110;-1.706;2023-02-13T06:33:40;17.70;;;13.37;;
11034;SDS011;5571;48.110;-1.706;2023-02-13T06:36:06;21.20;;;13.67;;
11034;SDS011;5571;48.110;-1.706;2023-02-13T06:38:31;18.50;;;13.50;;
11034;SDS011;5571;48.110;-1.706;2023-02-13T06:40:58;20.53;;;14.43;;
11034;SDS011;5571;48.110;-1.706;2023-02-13T06:43:26;20.97;;;14.83;;
11034;SDS011;5571;48.110;-1.706;2023-02-13T06:45:52;17.23;;;13.40;;
11034;SDS011;5571;48.110;-1.706;2023-02-13T06:48:18;19.10;;;14.57;;
11034;SDS011;5571;48.110;-1.706;2023-02-13T06:50:44;22.43;;;14.83;;
11034;SDS011;5571;48.110;-1.706;2023-02-13T06:53:10;17.23;;;13.67;;
11034;SDS011;5571;48.110;-1.706;2023-02-13T06:55:35;18.83;;;13.60;;
11034;SDS011;5571;48.110;-1.706;2023-02-13T06:58:03;20.10;;;14.67;;
11034;SDS011;5571;48.110;-1.706;2023-02-13T07:00:29;19.77;;;14.17;;
11034;SDS011;5571;48.110;-1.706;2023-02-13T07:03:00;20.13;;;14.90;;
11034;SDS011;5571;48.110;-1.706;2023-02-13T07:05:27;19.57;;;14.23;;
11034;SDS011;5571;48.110;-1.706;2023-02-13T07:07:53;19.43;;;14.40;;
11034;SDS011;5571;48.110;-1.706;2023-02-13T07:10:18;19.80;;;14.80;;
11034;SDS011;5571;48.110;-1.706;2023-02-13T07:12:44;25.03;;;15.77;;
11034;SDS011;5571;48.110;-1.706;2023-02-13T07:15:10;21.83;;;15.27;;
11034;SDS011;5571;48.110;-1.706;2023-02-13T07:17:36;20.70;;;15.73;;
11034;SDS011;5571;48.110;-1.706;2023-02-13T07:20:02;20.13;;;15.20;;
11034;SDS011;5571;48.110;-1.706;2023-02-13T07:22:29;22.13;;;15.60;;
11034;SDS011;5571;48.110;-1.706;2023-02-13T07:24:56;20.37;;;15.60;;
11034;SDS011;5571;48.110;-1.706;2023-02-13T07:27:23;21.93;;;15.67;;
11034;SDS011;5571;48.110;-1.706;2023-02-13T07:29:48;22.27;;;16.70;;
11034;SDS011;5571;48.110;-1.706;2023-02-13T07:32:14;21.50;;;16.13;;
11034;SDS011;5571;48.110;-1.706;2023-02-13T07:34:40;20.70;;;15.70;;
11034;SDS011;5571;48.110;-1.706;2023-02-13T07:37:05;21.27;;;15.83;;
11034;SDS011;5571;48.110;-1.706;2023-02-13T07:39:31;26.77;;;17.80;;
11034;SDS011;5571;48.110;-1.706;2023-02-13T07:41:56;24.73;;;16.93;;
11034;SDS011;5571;48.110;-1.706;2023-02-13T07:44:22;24.07;;;15.23;;
11034;SDS011;5571;48.110;-1.706;2023-02-13T07:46:48;22.53;;;16.07;;
11034;SDS011;5571;48.110;-1.706;2023-02-13T07:49:13;21.27;;;15.27;;
11034;SDS011;5571;48.110;-1.706;2023-02-13T07:51:39;23.30;;;16.30;;
11034;SDS011;5571;48.110;-1.706;2023-02-13T07:54:05;23.27;;;16.63;;
11034;SDS011;5571;48.110;-1.706;2023-02-13T07:56:30;20.53;;;15.67;;
11034;SDS011;5571;48.110;-1.706;2023-02-13T07:58:56;21.17;;;16.13;;
11034;SDS011;5571;48.110;-1.706;2023-02-13T08:01:22;21.23;;;16.40;;
11034;SDS011;5571;48.110;-1.706;2023-02-13T08:03:48;25.43;;;16.23;;
11034;SDS011;5571;48.110;-1.706;2023-02-13T08:06:15;22.27;;;15.83;;
11034;SDS011;5571;48.110;-1.706;2023-02-13T08:08:41;21.60;;;14.90;;
11034;SDS011;5571;48.110;-1.706;2023-02-13T08:11:18;23.23;;;16.70;;
11034;SDS011;5571;48.110;-1.706;2023-02-13T08:14:09;25.07;;;15.83;;
11034;SDS011;5571;48.110;-1.706;2023-02-13T08:16:35;22.00;;;16.17;;
11034;SDS011;5571;48.110;-1.706;2023-02-13T08:19:00;23.80;;;15.73;;
11034;SDS011;5571;48.110;-1.706;2023-02-13T08:21:26;24.43;;;16.60;;
11034;SDS011;5571;48.110;-1.706;2023-02-13T08:23:51;24.23;;;16.40;;
11034;SDS011;5571;48.110;-1.706;2023-02-13T08:26:17;23.67;;;16.47;;
11034;SDS011;5571;48.110;-1.706;2023-02-13T08:28:43;24.57;;;17.77;;
11034;SDS011;5571;48.110;-1.706;2023-02-13T08:31:11;22.90;;;17.70;;
11034;SDS011;5571;48.110;-1.706;2023-02-13T08:33:37;24.87;;;16.93;;
11034;SDS011;5571;48.110;-1.706;2023-02-13T08:36:05;25.27;;;18.07;;
11034;SDS011;5571;48.110;-1.706;2023-02-13T08:38:31;24.33;;;17.67;;
11034;SDS011;5571;48.110;-1.706;2023-02-13T08:40:57;26.73;;;19.00;;
11034;SDS011;5571;48.110;-1.706;2023-02-13T08:43:23;23.37;;;17.53;;
11034;SDS011;5571;48.110;-1.706;2023-02-13T08:45:48;23.90;;;17.77;;
11034;SDS011;5571;48.110;-1.706;2023-02-13T08:48:14;29.27;;;16.97;;
11034;SDS011;5571;48.110;-1.706;2023-02-13T08:50:40;23.00;;;17.73;;
11034;SDS011;5571;48.110;-1.706;2023-02-13T08:53:06;28.20;;;19.67;;
11034;SDS011;5571;48.110;-1.706;2023-02-13T08:55:31;22.40;;;16.63;;
11034;SDS011;5571;48.110;-1.706;2023-02-13T08:58:00;23.23;;;17.50;;
11034;SDS011;5571;48.110;-1.706;2023-02-13T09:00:27;23.20;;;17.23;;
11034;SDS011;5571;48.110;-1.706;2023-02-13T09:02:52;27.13;;;19.23;;
11034;SDS011;5571;48.110;-1.706;2023-02-13T09:05:18;25.30;;;18.13;;
11034;SDS011;5571;48.110;-1.706;2023-02-13T09:07:44;28.33;;;17.43;;
11034;SDS011;5571;48.110;-1.706;2023-02-13T09:10:10;28.93;;;19.33;;
11034;SDS011;5571;48.110;-1.706;2023-02-13T09:12:36;24.50;;;18.20;;
11034;SDS011;5571;48.110;-1.706;2023-02-13T09:15:02;24.50;;;17.63;;
11034;SDS011;5571;48.110;-1.706;2023-02-13T09:17:28;24.00;;;18.27;;
11034;SDS011;5571;48.110;-1.706;2023-02-13T09:19:54;24.63;;;18.40;;
11034;SDS011;5571;48.110;-1.706;2023-02-13T09:22:20;26.10;;;19.03;;
11034;SDS011;5571;48.110;-1.706;2023-02-13T09:24:45;25.00;;;17.77;;
11034;SDS011;5571;48.110;-1.706;2023-02-13T09:27:11;25.37;;;18.17;;
11034;SDS011;5571;48.110;-1.706;2023-02-13T09:29:36;23.47;;;17.67;;
11034;SDS011;5571;48.110;-1.706;2023-02-13T09:32:03;25.50;;;18.93;;
11034;SDS011;5571;48.110;-1.706;2023-02-13T09:34:29;25.20;;;18.70;;
11034;SDS011;5571;48.110;-1.706;2023-02-13T09:36:55;24.83;;;18.10;;
11034;SDS011;5571;48.110;-1.706;2023-02-13T09:39:20;25.03;;;18.67;;
11034;SDS011;5571;48.110;-1.706;2023-02-13T09:41:47;25.97;;;18.33;;
11034;SDS011;5571;48.110;-1.706;2023-02-13T09:47:18;23.93;;;18.20;;
11034;SDS011;5571;48.110;-1.706;2023-02-13T09:49:47;24.33;;;18.77;;
11034;SDS011;5571;48.110;-1.706;2023-02-13T09:52:19;24.97;;;18.73;;
11034;SDS011;5571;48.110;-1.706;2023-02-13T09:54:45;25.57;;;17.93;;
11034;SDS011;5571;48.110;-1.706;2023-02-13T09:57:32;24.93;;;18.60;;
11034;SDS011;5571;48.110;-1.706;2023-02-13T10:00:05;24.53;;;17.47;;
11034;SDS011;5571;48.110;-1.706;2023-02-13T10:08:17;25.07;;;18.37;;
11034;SDS011;5571;48.110;-1.706;2023-02-13T10:16:39;29.40;;;17.70;;
11034;SDS011;5571;48.110;-1.706;2023-02-13T10:22:06;22.67;;;18.27;;
11034;SDS011;5571;48.110;-1.706;2023-02-13T10:27:27;21.63;;;17.47;;
11034;SDS011;5571;48.110;-1.706;2023-02-13T10:30:00;22.37;;;16.87;;
11034;SDS011;5571;48.110;-1.706;2023-02-13T10:35:15;24.20;;;18.03;;
11034;SDS011;5571;48.110;-1.706;2023-02-13T10:37:42;21.20;;;17.30;;
11034;SDS011;5571;48.110;-1.706;2023-02-13T10:40:09;23.67;;;18.30;;
11034;SDS011;5571;48.110;-1.706;2023-02-13T10:43:09;23.93;;;17.30;;
11034;SDS011;5571;48.110;-1.706;2023-02-13T10:45:48;22.37;;;17.53;;
11034;SDS011;5571;48.110;-1.706;2023-02-13T10:56:33;22.70;;;17.43;;
11034;SDS011;5571;48.110;-1.706;2023-02-13T10:59:07;25.27;;;17.60;;
11034;SDS011;5571;48.110;-1.706;2023-02-13T11:01:51;22.20;;;16.67;;
11034;SDS011;5571;48.110;-1.706;2023-02-13T11:04:41;20.73;;;16.73;;
11034;SDS011;5571;48.110;-1.706;2023-02-13T11:07:10;23.97;;;17.83;;
11034;SDS011;5571;48.110;-1.706;2023-02-13T11:09:48;20.90;;;17.40;;
11034;SDS011;5571;48.110;-1.706;2023-02-13T11:15:19;25.20;;;17.73;;
11034;SDS011;5571;48.110;-1.706;2023-02-13T11:17:54;23.30;;;18.50;;
11034;SDS011;5571;48.110;-1.706;2023-02-13T11:22:56;24.23;;;18.37;;
11034;SDS011;5571;48.110;-1.706;2023-02-13T11:26:00;23.57;;;18.90;;
11034;SDS011;5571;48.110;-1.706;2023-02-13T11:28:29;21.83;;;17.63;;
11034;SDS011;5571;48.110;-1.706;2023-02-13T11:33:53;24.00;;;18.43;;
11034;SDS011;5571;48.110;-1.706;2023-02-13T11:36:23;23.23;;;17.87;;
11034;SDS011;5571;48.110;-1.706;2023-02-13T11:41:30;26.40;;;18.30;;
11034;SDS011;5571;48.110;-1.706;2023-02-13T11:44:01;23.10;;;17.27;;
11034;SDS011;5571;48.110;-1.706;2023-02-13T11:46:29;25.40;;;17.40;;
11034;SDS011;5571;48.110;-1.706;2023-02-13T11:49:14;25.30;;;17.57;;
11034;SDS011;5571;48.110;-1.706;2023-02-13T11:51:44;25.17;;;19.97;;
11034;SDS011;5571;48.110;-1.706;2023-02-13T11:57:27;24.07;;;18.17;;
11034;SDS011;5571;48.110;-1.706;2023-02-13T11:59:55;20.43;;;16.63;;
11034;SDS011;5571;48.110;-1.706;2023-02-13T12:02:28;19.23;;;16.47;;
11034;SDS011;5571;48.110;-1.706;2023-02-13T12:07:39;20.87;;;16.63;;
11034;SDS011;5571;48.110;-1.706;2023-02-13T12:10:17;25.10;;;16.63;;
11034;SDS011;5571;48.110;-1.706;2023-02-13T12:12:55;21.80;;;16.27;;
11034;SDS011;5571;48.110;-1.706;2023-02-13T12:20:50;18.83;;;15.33;;
11034;SDS011;5571;48.110;-1.706;2023-02-13T12:26:43;20.30;;;16.37;;
11034;SDS011;5571;48.110;-1.706;2023-02-13T12:29:21;20.53;;;15.83;;
11034;SDS011;5571;48.110;-1.706;2023-02-13T12:37:54;18.13;;;15.37;;
11034;SDS011;5571;48.110;-1.706;2023-02-13T12:57:42;19.57;;;14.43;;
11034;SDS011;5571;48.110;-1.706;2023-02-13T13:00:19;16.03;;;13.57;;
11034;SDS011;5571;48.110;-1.706;2023-02-13T13:03:21;15.93;;;14.23;;
11034;SDS011;5571;48.110;-1.706;2023-02-13T13:08:58;20.67;;;14.40;;
11034;SDS011;5571;48.110;-1.706;2023-02-13T13:11:38;16.03;;;14.33;;
11034;SDS011;5571;48.110;-1.706;2023-02-13T13:14:31;17.27;;;13.67;;
11034;SDS011;5571;48.110;-1.706;2023-02-13T13:17:11;16.60;;;13.40;;
11034;SDS011;5571;48.110;-1.706;2023-02-13T13:24:50;17.10;;;14.00;;
11034;SDS011;5571;48.110;-1.706;2023-02-13T13:30:17;14.90;;;13.17;;
11034;SDS011;5571;48.110;-1.706;2023-02-13T13:32:56;17.10;;;12.77;;
11034;SDS011;5571;48.110;-1.706;2023-02-13T13:35:30;15.80;;;12.57;;
11034;SDS011;5571;48.110;-1.706;2023-02-13T13:38:14;18.30;;;12.97;;
11034;SDS011;5571;48.110;-1.706;2023-02-13T13:41:00;14.93;;;11.80;;
11034;SDS011;5571;48.110;-1.706;2023-02-13T13:43:41;15.60;;;13.27;;
11034;SDS011;5571;48.110;-1.706;2023-02-13T13:46:36;16.23;;;13.53;;
11034;SDS011;5571;48.110;-1.706;2023-02-13T13:49:20;15.00;;;13.10;;
11034;SDS011;5571;48.110;-1.706;2023-02-13T13:51:50;15.57;;;12.57;;
11034;SDS011;5571;48.110;-1.706;2023-02-13T13:54:17;15.63;;;13.70;;
11034;SDS011;5571;48.110;-1.706;2023-02-13T13:59:18;20.03;;;14.90;;
11034;SDS011;5571;48.110;-1.706;2023-02-13T14:07:45;17.83;;;14.00;;
11034;SDS011;5571;48.110;-1.706;2023-02-13T14:25:49;18.40;;;14.27;;
11034;SDS011;5571;48.110;-1.706;2023-02-13T14:28:33;19.50;;;15.27;;
11034;SDS011;5571;48.110;-1.706;2023-02-13T14:34:02;20.63;;;14.27;;
11034;SDS011;5571;48.110;-1.706;2023-02-13T14:36:35;18.73;;;13.50;;
11034;SDS011;5571;48.110;-1.706;2023-02-13T14:39:05;17.30;;;14.00;;
11034;SDS011;5571;48.110;-1.706;2023-02-13T14:41:44;17.17;;;14.10;;
11034;SDS011;5571;48.110;-1.706;2023-02-13T14:44:29;16.97;;;14.60;;
11034;SDS011;5571;48.110;-1.706;2023-02-13T14:47:03;18.67;;;14.43;;
11034;SDS011;5571;48.110;-1.706;2023-02-13T14:49:38;18.80;;;15.53;;
11034;SDS011;5571;48.110;-1.706;2023-02-13T14:52:07;16.97;;;15.17;;
11034;SDS011;5571;48.110;-1.706;2023-02-13T14:54:51;19.47;;;15.67;;
11034;SDS011;5571;48.110;-1.706;2023-02-13T14:57:30;18.47;;;15.73;;
11034;SDS011;5571;48.110;-1.706;2023-02-13T15:00:07;18.73;;;14.80;;
11034;SDS011;5571;48.110;-1.706;2023-02-13T15:02:46;19.80;;;14.70;;
11034;SDS011;5571;48.110;-1.706;2023-02-13T15:05:17;15.67;;;13.87;;
11034;SDS011;5571;48.110;-1.706;2023-02-13T15:07:48;17.83;;;14.67;;
11034;SDS011;5571;48.110;-1.706;2023-02-13T15:10:39;17.20;;;14.40;;
11034;SDS011;5571;48.110;-1.706;2023-02-13T15:15:58;16.10;;;13.33;;
11034;SDS011;5571;48.110;-1.706;2023-02-13T15:18:28;20.40;;;14.23;;
11034;SDS011;5571;48.110;-1.706;2023-02-13T15:20:57;19.03;;;15.37;;
11034;SDS011;5571;48.110;-1.706;2023-02-13T15:23:25;16.53;;;14.10;;
11034;SDS011;5571;48.110;-1.706;2023-02-13T15:25:57;17.60;;;13.67;;
11034;SDS011;5571;48.110;-1.706;2023-02-13T15:28:28;18.23;;;14.10;;
11034;SDS011;5571;48.110;-1.706;2023-02-13T15:30:58;20.83;;;13.90;;
11034;SDS011;5571;48.110;-1.706;2023-02-13T15:33:47;16.83;;;13.03;;
11034;SDS011;5571;48.110;-1.706;2023-02-13T15:36:19;16.40;;;13.60;;
11034;SDS011;5571;48.110;-1.706;2023-02-13T15:38:46;16.23;;;13.07;;
11034;SDS011;5571;48.110;-1.706;2023-02-13T15:41:17;16.97;;;12.73;;
11034;SDS011;5571;48.110;-1.706;2023-02-13T15:43:52;17.07;;;13.23;;
11034;SDS011;5571;48.110;-1.706;2023-02-13T15:46:25;19.70;;;13.83;;
11034;SDS011;5571;48.110;-1.706;2023-02-13T15:48:52;17.33;;;12.97;;
11034;SDS011;5571;48.110;-1.706;2023-02-13T15:51:23;17.97;;;13.70;;
11034;SDS011;5571;48.110;-1.706;2023-02-13T15:53:52;15.93;;;12.23;;
11034;SDS011;5571;48.110;-1.706;2023-02-13T15:56:18;19.10;;;12.83;;
11034;SDS011;5571;48.110;-1.706;2023-02-13T15:58:44;15.63;;;13.17;;
11034;SDS011;5571;48.110;-1.706;2023-02-13T16:01:11;14.63;;;12.83;;
11034;SDS011;5571;48.110;-1.706;2023-02-13T16:03:38;23.57;;;14.20;;
11034;SDS011;5571;48.110;-1.706;2023-02-13T16:06:06;16.33;;;13.23;;
11034;SDS011;5571;48.110;-1.706;2023-02-13T16:08:37;16.97;;;13.63;;
11034;SDS011;5571;48.110;-1.706;2023-02-13T16:22:51;18.87;;;13.70;;
11034;SDS011;5571;48.110;-1.706;2023-02-13T16:24:51;16.23;;;13.53;;
11034;SDS011;5571;48.110;-1.706;2023-02-13T16:27:24;18.33;;;13.43;;
11034;SDS011;5571;48.110;-1.706;2023-02-13T16:29:58;20.53;;;13.33;;
11034;SDS011;5571;48.110;-1.706;2023-02-13T16:32:27;16.77;;;13.53;;
11034;SDS011;5571;48.110;-1.706;2023-02-13T16:35:14;20.53;;;13.17;;
11034;SDS011;5571;48.110;-1.706;2023-02-13T16:37:49;16.63;;;12.87;;
11034;SDS011;5571;48.110;-1.706;2023-02-13T16:40:36;16.40;;;13.50;;
11034;SDS011;5571;48.110;-1.706;2023-02-13T16:46:10;20.50;;;13.50;;
11034;SDS011;5571;48.110;-1.706;2023-02-13T16:48:40;18.13;;;13.90;;
11034;SDS011;5571;48.110;-1.706;2023-02-13T16:51:07;23.37;;;16.30;;
11034;SDS011;5571;48.110;-1.706;2023-02-13T16:53:34;21.33;;;16.47;;
11034;SDS011;5571;48.110;-1.706;2023-02-13T16:56:01;25.03;;;15.87;;
11034;SDS011;5571;48.110;-1.706;2023-02-13T16:58:30;19.80;;;14.87;;
11034;SDS011;5571;48.110;-1.706;2023-02-13T17:00:55;21.23;;;14.87;;
11034;SDS011;5571;48.110;-1.706;2023-02-13T17:03:21;21.63;;;14.83;;
11034;SDS011;5571;48.110;-1.706;2023-02-13T17:05:47;21.00;;;16.90;;
11034;SDS011;5571;48.110;-1.706;2023-02-13T17:08:13;23.07;;;16.80;;
11034;SDS011;5571;48.110;-1.706;2023-02-13T17:10:39;22.40;;;16.83;;
11034;SDS011;5571;48.110;-1.706;2023-02-13T17:15:39;21.47;;;16.67;;
11034;SDS011;5571;48.110;-1.706;2023-02-13T17:18:07;32.17;;;16.70;;
11034;SDS011;5571;48.110;-1.706;2023-02-13T17:20:33;22.20;;;16.83;;
11034;SDS011;5571;48.110;-1.706;2023-02-13T17:22:59;30.30;;;17.63;;
11034;SDS011;5571;48.110;-1.706;2023-02-13T17:25:29;25.03;;;17.17;;
11034;SDS011;5571;48.110;-1.706;2023-02-13T17:27:58;24.50;;;18.03;;
11034;SDS011;5571;48.110;-1.706;2023-02-13T17:30:30;31.50;;;19.27;;
11034;SDS011;5571;48.110;-1.706;2023-02-13T17:32:58;26.13;;;20.97;;
11034;SDS011;5571;48.110;-1.706;2023-02-13T17:35:26;37.77;;;21.43;;
11034;SDS011;5571;48.110;-1.706;2023-02-13T17:37:52;31.73;;;21.60;;
11034;SDS011;5571;48.110;-1.706;2023-02-13T17:40:19;26.10;;;22.03;;
11034;SDS011;5571;48.110;-1.706;2023-02-13T17:42:48;30.00;;;23.60;;
11034;SDS011;5571;48.110;-1.706;2023-02-13T17:45:17;27.40;;;22.13;;
11034;SDS011;5571;48.110;-1.706;2023-02-13T17:47:44;31.70;;;24.00;;
11034;SDS011;5571;48.110;-1.706;2023-02-13T17:50:10;36.37;;;26.43;;
11034;SDS011;5571;48.110;-1.706;2023-02-13T17:52:37;40.27;;;25.40;;